Time;durP1;ratioP1;P1;durP2;ratioP2;P2;SDS_P1;SDS_P2;PMS_P1;PMS_P2;Temp;Humidity;BMP_temperature;BMP_pressure;BME280_temperature;BME280_humidity;BME280_pressure;Samples;Min_cycle;Max_cycle;Signal;HPM_P1;HPM_P2
2022/11/27 00:02:52;;;;;;;3.50;1.80;;;;;;;;;;21021530;28;20282;-62
2022/11/27 00:12:53;;;;;;;4.77;2.43;;;;;;;;;;21020739;28;20288;-62
2022/11/27 00:22:56;;;;;;;3.97;1.93;;;;;;;;;;21053004;28;20586;-62
2022/11/27 00:32:57;;;;;;;5.47;3.17;;;;;;;;;;21034982;28;20224;-63
2022/11/27 00:43:00;;;;;;;3.23;2.07;;;;;;;;;;21015530;28;20241;-62
2022/11/27 00:53:02;;;;;;;2.23;1.33;;;;;;;;;;20998738;28;20209;-63
2022/11/27 01:03:04;;;;;;;2.00;1.50;;;;;;;;;;21035139;28;20231;-62
2022/11/27 01:13:06;;;;;;;2.13;1.50;;;;;;;;;;21025477;28;20292;-63
2022/11/27 01:23:08;;;;;;;2.00;1.33;;;;;;;;;;21057703;28;20220;-62
2022/11/27 01:33:09;;;;;;;4.07;1.73;;;;;;;;;;20998387;28;1211058;-62
2022/11/27 01:43:15;;;;;;;2.40;1.87;;;;;;;;;;21061233;28;20691;-62
2022/11/27 01:53:18;;;;;;;2.80;2.00;;;;;;;;;;21043409;28;20204;-62
2022/11/27 02:03:20;;;;;;;3.20;1.83;;;;;;;;;;21043564;28;20228;-62
2022/11/27 02:13:51;;;;;;;2.50;1.70;;;4.60;99.90;;;;;;21025507;28;20213;-62
2022/11/27 02:23:53;;;;;;;3.27;2.33;;;;;;;;;;21028829;28;20224;-62
2022/11/27 02:33:56;;;;;;;3.30;2.10;;;;;;;;;;21043624;22;20236;-66
2022/11/27 02:44:00;;;;;;;3.30;2.40;;;;;;;;;;21028510;28;20220;-65
2022/11/27 02:54:02;;;;;;;4.63;1.43;;;;;;;;;;21027704;28;20237;-65
2022/11/27 03:04:09;;;;;;;2.70;1.93;;;4.50;99.90;;;;;;21043339;28;20217;-66
2022/11/27 03:14:13;;;;;;;3.53;2.70;;;4.60;99.90;;;;;;21041147;28;20213;-66
2022/11/27 03:24:15;;;;;;;6.20;2.80;;;;;;;;;;21025060;28;20622;-65
2022/11/27 03:34:17;;;;;;;3.00;2.10;;;;;;;;;;21023663;28;20269;-66
2022/11/27 03:44:31;;;;;;;3.90;2.47;;;4.20;99.90;;;;;;21023561;28;20242;-66
2022/11/27 03:54:33;;;;;;;5.60;1.50;;;;;;;;;;21022269;28;20208;-66
2022/11/27 04:04:34;;;;;;;8.03;2.00;;;;;;;;;;21021595;28;20216;-66
2022/11/27 04:14:37;;;;;;;2.33;1.67;;;;;;;;;;21037976;28;20213;-66
2022/11/27 04:24:39;;;;;;;10.53;3.43;;;;;;;;;;21037280;28;20235;-66
2022/11/27 04:34:41;;;;;;;3.17;1.80;;;;;;;;;;21019810;28;20224;-66
2022/11/27 04:44:43;;;;;;;1.90;1.17;;;;;;;;;;21035360;28;20657;-66
2022/11/27 04:54:45;;;;;;;1.50;1.33;;;;;;;;;;21035002;28;20224;-66
2022/11/27 05:04:47;;;;;;;4.23;1.33;;;;;;;;;;21018261;28;20694;-66
2022/11/27 05:14:50;;;;;;;2.20;1.47;;;;;;;;;;21034410;28;20575;-66
2022/11/27 05:24:51;;;;;;;3.17;1.87;;;;;;;;;;21017313;28;20609;-65
2022/11/27 05:34:53;;;;;;;2.07;1.70;;;;;;;;;;21016674;28;20451;-66
2022/11/27 05:44:55;;;;;;;2.20;1.17;;;;;;;;;;21016613;28;20220;-65
2022/11/27 05:54:57;;;;;;;4.47;1.13;;;;;;;;;;21027335;28;20269;-65
2022/11/27 06:04:59;;;;;;;1.50;0.87;;;;;;;;;;21048031;28;20687;-65
2022/11/27 06:15:01;;;;;;;2.40;1.37;;;;;;;;;;21030628;28;20204;-65
2022/11/27 06:25:03;;;;;;;3.57;1.30;;;;;;;;;;21030016;28;20212;-65
2022/11/27 06:35:05;;;;;;;2.63;1.17;;;5.50;99.90;;;;;;21028702;28;20304;-65
2022/11/27 06:45:07;;;;;;;3.00;1.63;;;;;;;;;;21028224;28;20224;-65
2022/11/27 06:55:10;;;;;;;13.33;3.87;;;;;;;;;;21043953;28;20277;-65
2022/11/27 07:05:12;;;;;;;3.10;1.70;;;;;;;;;;21042802;28;20269;-65
2022/11/27 07:15:13;;;;;;;2.10;1.10;;;;;;;;;;21034792;28;20212;-65
2022/11/27 07:25:16;;;;;;;3.40;1.80;;;3.80;99.90;;;;;;21052130;28;20296;-65
2022/11/27 07:35:18;;;;;;;3.30;1.77;;;;;;;;;;21140388;28;20216;-66
2022/11/27 07:45:20;;;;;;;2.00;1.10;;;;;;;;;;21042218;28;20236;-66
2022/11/27 07:55:22;;;;;;;4.07;1.90;;;;;;;;;;21097573;28;20775;-65
2022/11/27 08:05:24;;;;;;;3.17;1.83;;;;;;;;;;21091597;28;20289;-65
2022/11/27 08:15:26;;;;;;;1.80;1.20;;;;;;;;;;21090437;28;20245;-65
2022/11/27 08:25:29;;;;;;;4.03;1.93;;;;;;;;;;21075087;28;20584;-66
2022/11/27 08:35:31;;;;;;;2.10;1.33;;;;;;;;;;21103539;28;20223;-66
2022/11/27 08:45:33;;;;;;;1.90;1.27;;;;;;;;;;21104065;28;20371;-66
2022/11/27 08:55:34;;;;;;;2.10;1.40;;;;;;;;;;21102515;28;20622;-65
2022/11/27 09:05:36;;;;;;;4.63;1.37;;;;;;;;;;21037809;23;20771;-75
2022/11/27 09:15:38;;;;;;;2.23;1.23;;;;;;;;;;21047149;28;20254;-75
2022/11/27 09:25:40;;;;;;;3.17;1.10;;;;;;;;;;21065723;28;20208;-74
2022/11/27 09:35:42;;;;;;;1.60;1.23;;;;;;;;;;21076622;28;20760;-72
2022/11/27 09:45:53;;;;;;;2.07;1.10;;;;;;;;;;21076556;28;20212;-72
2022/11/27 09:55:57;;;;;;;0.93;0.77;;;;;;;;;;21074386;28;20253;-72
2022/11/27 10:06:26;;;;;;;2.60;1.47;;;;;;;;;;21070978;28;20639;-73
2022/11/27 10:16:32;;;;;;;1.43;1.33;;;;;;;;;;21085381;28;20647;-72
2022/11/27 10:26:39;;;;;;;2.97;1.40;;;;;;;;;;21068965;28;20375;-73
2022/11/27 10:36:43;;;;;;;3.37;1.30;;;;;;;;;;21065704;28;20254;-72
2022/11/27 10:46:45;;;;;;;1.80;1.10;;;;;;;;;;21054157;28;20220;-71
2022/11/27 10:57:10;;;;;;;1.80;1.17;;;5.40;99.90;;;;;;21072455;28;20216;-71
2022/11/27 11:07:29;;;;;;;1.57;0.90;;;5.70;99.90;;;;;;21024250;28;20759;-72
2022/11/27 11:17:39;;;;;;;2.80;1.67;;;5.80;99.90;;;;;;21071080;28;20295;-75
2022/11/27 11:27:43;;;;;;;4.83;2.10;;;5.80;99.90;;;;;;21069916;28;20216;-72
2022/11/27 11:37:45;;;;;;;1.53;1.00;;;5.70;99.90;;;;;;21069421;28;20205;-72
2022/11/27 11:47:48;;;;;;;1.90;1.20;;;;;;;;;;21069369;28;20286;-75
2022/11/27 11:58:11;;;;;;;1.17;0.90;;;;;;;;;;21069113;28;20258;-72
2022/11/27 12:08:13;;;;;;;1.93;1.20;;;;;;;;;;21068112;28;20216;-74
2022/11/27 12:18:31;;;;;;;1.40;1.00;;;6.00;99.90;;;;;;21050162;28;20201;-73
2022/11/27 12:28:58;;;;;;;2.47;1.40;;;6.10;99.90;;;;;;21067630;28;20208;-74
2022/11/27 12:39:12;;;;;;;2.80;1.40;;;;;;;;;;21045655;28;20706;-75
2022/11/27 12:49:20;;;;;;;3.27;2.07;;;;;;;;;;21046924;28;20220;-73
2022/11/27 12:59:26;;;;;;;3.60;1.97;;;;;;;;;;21046885;28;20771;-74
2022/11/27 13:09:50;;;;;;;3.27;1.97;;;5.70;99.90;;;;;;21065458;28;20241;-74
2022/11/27 13:19:52;;;;;;;2.80;1.63;;;;;;;;;;21049555;28;20204;-73
2022/11/27 13:29:55;;;;;;;3.83;1.93;;;;;;;;;;21044687;28;20223;-73
2022/11/27 13:40:02;;;;;;;3.43;2.07;;;;;;;;;;21063993;28;20547;-73
2022/11/27 13:50:09;;;;;;;4.00;2.40;;;;;;;;;;21055556;28;20273;-74
2022/11/27 14:00:12;;;;;;;4.83;2.27;;;;;;;;;;21044700;28;20278;-74
2022/11/27 14:10:24;;;;;;;2.60;1.80;;;5.30;99.90;;;;;;21045849;28;20293;-73
2022/11/27 14:20:29;;;;;;;2.63;1.63;;;;;;;;;;21079372;28;20212;-73
2022/11/27 14:30:50;;;;;;;2.03;1.47;;;;;;;;;;21054340;28;20220;-73
2022/11/27 14:40:53;;;;;;;3.47;1.83;;;;;;;;;;21038571;28;20290;-73
2022/11/27 14:50:55;;;;;;;9.00;5.27;;;;;;;;;;21059016;28;20314;-74
2022/11/27 15:01:01;;;;;;;4.83;2.07;;;;;;;;;;21062965;28;20440;-74
2022/11/27 15:11:04;;;;;;;2.47;1.60;;;;;;;;;;21062412;28;20772;-73
2022/11/27 15:21:10;;;;;;;3.47;1.90;;;;;;;;;;21047120;28;20286;-73
2022/11/27 15:31:32;;;;;;;3.00;1.80;;;;;;;;;;21055673;28;20273;-73
2022/11/27 15:41:35;;;;;;;2.20;1.53;;;;;;;;;;21051792;28;20573;-74
2022/11/27 15:51:37;;;;;;;3.97;2.17;;;;;;;;;;21047644;28;20256;-74
2022/11/27 16:01:39;;;;;;;2.67;1.63;;;;;;;;;;21041592;28;20292;-74
2022/11/27 16:11:41;;;;;;;3.13;1.67;;;;;;;;;;20949367;22;20287;-67
2022/11/27 16:21:43;;;;;;;1.67;1.13;;;;;;;;;;20882940;28;20700;-67
2022/11/27 16:31:44;;;;;;;2.30;1.53;;;;;;;;;;20887806;28;20245;-68
2022/11/27 16:41:46;;;;;;;2.20;1.53;;;;;;;;;;20882527;28;20240;-67
2022/11/27 16:51:49;;;;;;;2.63;1.50;;;;;;;;;;20886971;28;20293;-68
2022/11/27 17:01:51;;;;;;;3.53;2.00;;;;;;;;;;20870200;28;20810;-67
2022/11/27 17:11:53;;;;;;;3.23;1.63;;;;;;;;;;20871928;28;20245;-68
2022/11/27 17:21:54;;;;;;;2.87;1.73;;;5.10;99.90;;;;;;20857820;28;20640;-68
2022/11/27 17:31:57;;;;;;;3.80;2.37;;;;;;;;;;20869107;28;20244;-68
2022/11/27 17:41:59;;;;;;;3.03;1.70;;;;;;;;;;20887411;28;20645;-68
2022/11/27 17:52:01;;;;;;;5.03;1.93;;;;;;;;;;20906961;28;20217;-67
2022/11/27 18:02:02;;;;;;;4.00;2.30;;;;;;;;;;20889736;28;20206;-68
2022/11/27 18:12:06;;;;;;;4.60;2.80;;;;;;;;;;20888219;28;20218;-69
2022/11/27 18:22:11;;;;;;;3.63;2.10;;;;;;;;;;20891294;28;20206;-68
2022/11/27 18:32:14;;;;;;;4.17;2.17;;;;;;;;;;20897441;28;20728;-67
2022/11/27 18:42:15;;;;;;;3.03;1.77;;;;;;;;;;20901769;28;20218;-68
2022/11/27 18:52:17;;;;;;;4.17;2.37;;;;;;;;;;20910862;28;20267;-68
2022/11/27 19:02:19;;;;;;;4.57;2.17;;;;;;;;;;20883530;28;20210;-68
2022/11/27 19:12:21;;;;;;;3.67;2.50;;;;;;;;;;20907871;28;20566;-68
2022/11/27 19:22:22;;;;;;;3.77;2.47;;;;;;;;;;20908223;28;20685;-68
2022/11/27 19:32:24;;;;;;;4.00;2.27;;;;;;;;;;20872869;28;20230;-68
2022/11/27 19:42:27;;;;;;;5.43;3.43;;;;;;;;;;20887681;28;20226;-67
2022/11/27 19:52:29;;;;;;;3.20;2.30;;;;;;;;;;20872840;28;20221;-68
2022/11/27 20:02:30;;;;;;;3.73;2.17;;;;;;;;;;20875462;28;20693;-68
2022/11/27 20:12:37;;;;;;;3.10;2.00;;;;;;;;;;20903565;28;20245;-68
2022/11/27 20:22:39;;;;;;;4.07;1.83;;;;;;;;;;20896137;28;20814;-68
2022/11/27 20:32:41;;;;;;;2.50;1.40;;;;;;;;;;20865915;28;20225;-68
2022/11/27 20:42:44;;;;;;;2.53;1.63;;;;;;;;;;20901707;28;20255;-68
2022/11/27 20:52:45;;;;;;;3.90;1.33;;;;;;;;;;20883751;28;20202;-68
2022/11/27 21:02:48;;;;;;;2.90;1.27;;;;;;;;;;20901380;28;20222;-68
2022/11/27 21:12:50;;;;;;;2.57;1.77;;;;;;;;;;20899488;28;20214;-68
2022/11/27 21:22:52;;;;;;;2.33;1.67;;;;;;;;;;20904523;28;20221;-68
2022/11/27 21:32:54;;;;;;;3.47;1.80;;;;;;;;;;20916905;28;20267;-68
2022/11/27 21:42:56;;;;;;;2.77;1.53;;;;;;;;;;20916806;28;20202;-68
2022/11/27 21:52:57;;;;;;;6.27;3.50;;;;;;;;;;20915929;28;20198;-68
2022/11/27 22:02:59;;;;;;;3.27;1.80;;;;;;;;;;20912984;28;20209;-68
2022/11/27 22:13:01;;;;;;;2.00;1.57;;;;;;;;;;20913967;28;20240;-68
2022/11/27 22:23:02;;;;;;;2.47;1.43;;;;;;;;;;20909452;28;20652;-68
2022/11/27 22:33:04;;;;;;;2.00;1.13;;;;;;;;;;20990602;22;20255;-66
2022/11/27 22:43:06;;;;;;;1.63;1.03;;;;;;;;;;20960662;28;20592;-65
2022/11/27 22:53:09;;;;;;;1.77;1.13;;;;;;;;;;20977497;28;20217;-66
2022/11/27 23:03:11;;;;;;;2.93;1.60;;;;;;;;;;20960289;28;20259;-66
2022/11/27 23:13:14;;;;;;;1.40;1.00;;;5.50;99.90;;;;;;20959617;28;20210;-66
2022/11/27 23:23:16;;;;;;;1.80;1.07;;;;;;;;;;20974275;28;20229;-66
2022/11/27 23:33:18;;;;;;;1.53;0.97;;;;;;;;;;20957679;28;20217;-66
2022/11/27 23:43:20;;;;;;;2.20;0.80;;;;;;;;;;20956580;28;20278;-66
2022/11/27 23:53:22;;;;;;;1.67;1.10;;;;;;;;;;20956594;28;20741;-66
